This is the latest recevied weather packets stored in our database for station/object OK1JIL-13. If no packets are shown the sender has not sent any weather packets the latest 10 day(s).
| Time | Temp. | Humidity | Pressure | Rain* | Wind** | Luminosity | Snow |
|---|---|---|---|---|---|---|---|
| 1777633399 | 18.33° C | 27% | 1029.4 hPa | - | - | - | - |
| 1777632799 | 17.22° C | 29% | 1029.3 hPa | - | - | - | - |
| 1777632199 | 18.33° C | 26% | 1029.4 hPa | - | - | - | - |
| 1777631599 | 18.33° C | 27% | 1029.5 hPa | - | - | - | - |
| 1777630999 | 17.22° C | 28% | 1029.5 hPa | - | - | - | - |
| 1777630399 | 17.22° C | 26% | 1029.5 hPa | - | - | - | - |
| 1777629799 | 17.22° C | 30% | 1029.5 hPa | - | - | - | - |
| 1777629199 | 16.11° C | 29% | 1029.6 hPa | - | - | - | - |
| 1777628599 | 17.22° C | 28% | 1029.7 hPa | - | - | - | - |
| 1777627998 | 16.67° C | 30% | 1029.6 hPa | - | - | - | - |
| 1777627399 | 15.56° C | 30% | 1029.6 hPa | - | - | - | - |
| 1777626799 | 15° C | 30% | 1029.6 hPa | - | - | - | - |
| 1777626199 | 15° C | 29% | 1029.7 hPa | - | - | - | - |
| 1777625599 | 16.67° C | 27% | 1029.7 hPa | - | - | - | - |
| 1777625001 | 13.89° C | 31% | 1029.7 hPa | - | - | - | - |
| 1777624397 | 16.11° C | 30% | 1029.6 hPa | - | - | - | - |
| 1777623797 | 14.44° C | 31% | 1029.6 hPa | - | - | - | - |
| 1777623197 | 16.11° C | 32% | 1029.5 hPa | - | - | - | - |
| 1777622597 | 12.78° C | 34% | 1029.7 hPa | - | - | - | - |
| 1777621997 | 13.33° C | 33% | 1029.7 hPa | - | - | - | - |
| 1777621397 | 12.78° C | 36% | 1029.7 hPa | - | - | - | - |
| 1777620797 | 12.22° C | 37% | 1029.6 hPa | - | - | - | - |
| 1777620197 | 13.89° C | 37% | 1029.6 hPa | - | - | - | - |
| 1777619597 | 12.78° C | 36% | 1029.6 hPa | - | - | - | - |
| 1777618997 | 13.33° C | 36% | 1029.5 hPa | - | - | - | - |
* Rain since midnight (hover to see other rain measurements)
** Current wind speed in m/s (hover to see current wind gust speed)